createdAt,value
2023-10-14T00:01:29.025Z,15.99
2023-10-14T00:03:57.363Z,15.89
2023-10-14T00:06:25.222Z,15.93
2023-10-14T00:08:57.810Z,15.88
2023-10-14T00:11:25.669Z,15.86
2023-10-14T00:13:54.018Z,15.82
2023-10-14T00:16:36.333Z,15.74
2023-10-14T00:19:10.830Z,15.75
2023-10-14T00:21:38.073Z,15.64
2023-10-14T00:24:07.633Z,15.63
2023-10-14T00:26:34.935Z,15.74
2023-10-14T00:29:17.194Z,15.91
2023-10-14T00:31:45.082Z,16.10
2023-10-14T00:34:11.989Z,16.35
2023-10-14T00:36:38.594Z,16.65
2023-10-14T00:39:15.153Z,16.90
2023-10-14T00:41:45.786Z,17.10
2023-10-14T00:44:12.885Z,17.37
2023-10-14T00:46:44.219Z,17.70
2023-10-14T00:49:13.587Z,17.95
2023-10-14T00:51:44.860Z,18.36
2023-10-14T00:54:13.253Z,18.77
2023-10-14T00:56:43.847Z,19.00
2023-10-14T00:59:10.531Z,19.20
2023-10-14T01:01:55.708Z,19.26
2023-10-14T01:04:23.251Z,19.35
2023-10-14T01:07:02.191Z,19.40
2023-10-14T01:09:40.453Z,19.44
2023-10-14T01:12:17.582Z,19.36
2023-10-14T01:14:45.634Z,19.35
2023-10-14T01:17:22.917Z,19.22
2023-10-14T01:19:49.250Z,19.11
2023-10-14T01:22:15.664Z,19.06
2023-10-14T01:24:42.992Z,19.01
2023-10-14T01:27:11.817Z,18.90
2023-10-14T01:29:42.556Z,19.07
2023-10-14T01:32:24.930Z,19.15
2023-10-14T01:34:57.096Z,19.31
2023-10-14T01:37:27.603Z,19.41
2023-10-14T01:39:58.217Z,19.66
2023-10-14T01:42:24.725Z,19.78
2023-10-14T01:44:54.291Z,19.80
2023-10-14T01:47:22.605Z,19.75
2023-10-14T01:49:49.009Z,19.79
2023-10-14T01:52:20.740Z,19.88
2023-10-14T01:57:18.690Z,19.94
2023-10-14T01:59:50.629Z,19.98
2023-10-14T02:02:21.814Z,19.93
2023-10-14T02:04:48.925Z,19.90
2023-10-14T02:07:22.248Z,19.99
2023-10-14T02:09:56.360Z,20.03
2023-10-14T02:12:25.221Z,20.26
2023-10-14T02:15:00.967Z,20.47
2023-10-14T02:17:27.360Z,20.56
2023-10-14T02:19:54.053Z,20.49
2023-10-14T02:22:24.280Z,20.55
2023-10-14T02:24:51.044Z,20.40
2023-10-14T02:27:17.530Z,20.55
2023-10-14T02:29:48.071Z,20.56
2023-10-14T02:32:15.028Z,20.66
2023-10-14T02:34:45.028Z,20.68
2023-10-14T02:37:14.601Z,20.59
2023-10-14T02:39:44.356Z,20.53
2023-10-14T02:42:10.813Z,20.45
2023-10-14T02:44:49.105Z,20.41
2023-10-14T02:47:15.864Z,20.34
2023-10-14T02:49:42.944Z,20.37
2023-10-14T02:52:14.194Z,20.43
2023-10-14T02:54:46.396Z,20.45
2023-10-14T02:57:14.255Z,20.40
2023-10-14T02:59:42.795Z,20.45
2023-10-14T03:02:15.922Z,20.43
2023-10-14T03:04:51.057Z,20.41
2023-10-14T03:07:26.602Z,20.56
2023-10-14T03:09:53.771Z,20.46
2023-10-14T03:12:20.452Z,20.48
2023-10-14T03:14:52.042Z,20.40
2023-10-14T03:17:41.822Z,20.24
2023-10-14T03:20:28.037Z,20.15
2023-10-14T03:22:58.276Z,20.09
2023-10-14T03:25:25.323Z,20.10
2023-10-14T03:27:58.774Z,20.06
2023-10-14T03:30:25.384Z,20.00
2023-10-14T03:32:51.787Z,20.06
2023-10-14T03:35:22.506Z,20.11
2023-10-14T03:37:59.762Z,20.10
2023-10-14T03:40:45.245Z,20.09
2023-10-14T03:43:15.886Z,20.05
2023-10-14T03:46:03.188Z,20.06
2023-10-14T03:48:36.115Z,20.01
2023-10-14T03:51:06.440Z,19.98
2023-10-14T03:53:33.727Z,19.98
2023-10-14T03:56:01.928Z,20.02
2023-10-14T03:58:37.942Z,19.93
2023-10-14T04:01:04.439Z,19.85
2023-10-14T04:03:40.917Z,19.86
2023-10-14T04:06:16.592Z,19.84
2023-10-14T04:08:52.331Z,19.82
2023-10-14T04:11:26.710Z,19.82
2023-10-14T04:14:01.308Z,19.77
2023-10-14T04:16:29.083Z,19.80
2023-10-14T04:19:08.036Z,19.79
2023-10-14T04:21:37.374Z,19.79
2023-10-14T04:24:20.258Z,19.80
2023-10-14T04:26:49.665Z,19.73
2023-10-14T04:29:35.733Z,19.73
2023-10-14T04:32:14.870Z,19.67
2023-10-14T04:34:43.846Z,19.60
2023-10-14T04:37:10.583Z,19.62
2023-10-14T04:39:43.790Z,19.56
2023-10-14T04:42:19.185Z,19.55
2023-10-14T04:45:00.467Z,19.50
2023-10-14T04:47:39.202Z,19.45
2023-10-14T04:50:15.763Z,19.38
2023-10-14T04:52:43.226Z,19.24
2023-10-14T04:55:30.283Z,19.16
2023-10-14T04:58:20.257Z,19.14
2023-10-14T05:00:47.146Z,19.12
2023-10-14T05:03:15.867Z,19.08
2023-10-14T05:06:15.808Z,19.04
2023-10-14T05:08:46.232Z,18.94
2023-10-14T05:11:19.505Z,18.87
2023-10-14T05:13:54.616Z,18.75
2023-10-14T05:16:24.095Z,18.64
2023-10-14T05:19:00.596Z,18.54
2023-10-14T05:21:38.099Z,18.41
2023-10-14T05:24:07.214Z,17.73
2023-10-14T05:26:37.412Z,15.85
2023-10-14T05:29:12.389Z,15.11
2023-10-14T05:31:38.924Z,14.65
2023-10-14T05:34:06.309Z,14.35
2023-10-14T05:36:35.345Z,14.22
2023-10-14T05:39:03.757Z,14.14
2023-10-14T05:41:31.187Z,14.06
2023-10-14T05:43:57.672Z,14.04
2023-10-14T05:46:24.692Z,13.95
2023-10-14T05:48:54.284Z,13.88
2023-10-14T05:51:21.483Z,13.88
2023-10-14T05:53:49.727Z,13.95
2023-10-14T05:56:16.504Z,13.87
2023-10-14T05:58:43.759Z,13.84
2023-10-14T06:01:11.190Z,13.85
2023-10-14T06:03:38.700Z,13.87
2023-10-14T06:06:10.945Z,13.86
2023-10-14T06:08:38.354Z,13.87
2023-10-14T06:11:06.586Z,13.95
2023-10-14T06:13:35.906Z,13.97
2023-10-14T06:16:11.659Z,13.93
2023-10-14T06:18:39.484Z,13.89
2023-10-14T06:21:07.951Z,13.86
2023-10-14T06:23:34.371Z,13.86
2023-10-14T06:26:00.815Z,13.79
2023-10-14T06:28:28.911Z,13.85
2023-10-14T06:30:55.478Z,13.78
2023-10-14T06:33:27.558Z,13.74
2023-10-14T06:35:54.610Z,13.73
2023-10-14T06:38:23.556Z,13.72
2023-10-14T06:40:56.663Z,13.75
2023-10-14T06:43:25.045Z,13.67
2023-10-14T06:45:54.050Z,13.64
2023-10-14T06:48:20.647Z,13.62
2023-10-14T06:50:50.067Z,13.61
2023-10-14T06:53:18.600Z,13.63
2023-10-14T06:55:45.288Z,13.71
2023-10-14T06:58:20.087Z,13.88
2023-10-14T07:00:46.989Z,14.04
2023-10-14T07:03:16.495Z,13.98
2023-10-14T07:05:44.623Z,13.65
2023-10-14T07:08:12.322Z,13.25
2023-10-14T07:10:39.580Z,13.02
2023-10-14T07:13:06.324Z,13.02
2023-10-14T07:15:39.724Z,13.12
2023-10-14T07:18:06.937Z,13.20
2023-10-14T07:20:33.493Z,13.20
2023-10-14T07:23:01.648Z,13.15
2023-10-14T07:25:36.132Z,13.03
2023-10-14T07:28:08.274Z,13.01
2023-10-14T07:30:36.216Z,12.90
2023-10-14T07:33:06.696Z,12.78
2023-10-14T07:35:33.595Z,12.68
2023-10-14T07:37:59.948Z,12.68
2023-10-14T07:40:32.265Z,12.77
2023-10-14T07:43:06.787Z,12.85
2023-10-14T07:45:35.363Z,12.91
2023-10-14T07:48:09.816Z,12.88
2023-10-14T07:50:38.017Z,12.93
2023-10-14T07:53:14.212Z,12.93
2023-10-14T07:55:48.376Z,13.00
2023-10-14T07:58:17.009Z,12.97
2023-10-14T08:00:51.717Z,12.99
2023-10-14T08:03:21.169Z,12.90
2023-10-14T08:05:55.463Z,12.96
2023-10-14T08:08:23.066Z,13.11
2023-10-14T08:10:51.475Z,13.12
2023-10-14T08:13:24.612Z,13.24
2023-10-14T08:15:52.851Z,13.14
2023-10-14T08:18:24.789Z,13.00
2023-10-14T08:20:55.374Z,13.00
2023-10-14T08:23:23.173Z,12.95
2023-10-14T08:25:55.013Z,12.97
2023-10-14T08:28:22.492Z,12.95
2023-10-14T08:30:51.828Z,12.94
2023-10-14T08:33:20.507Z,12.97
2023-10-14T08:35:49.257Z,12.90
2023-10-14T08:38:20.410Z,12.96
2023-10-14T08:40:50.606Z,12.96
2023-10-14T08:43:21.361Z,13.07
2023-10-14T08:45:49.045Z,13.16
2023-10-14T08:48:20.586Z,13.14
2023-10-14T08:50:48.345Z,13.27
2023-10-14T08:53:14.775Z,13.49
2023-10-14T08:55:41.784Z,13.58
2023-10-14T08:58:14.577Z,13.73
2023-10-14T09:00:43.697Z,13.93
2023-10-14T09:03:11.408Z,13.87
2023-10-14T09:05:41.168Z,13.77
2023-10-14T09:08:20.796Z,13.75
2023-10-14T09:10:49.356Z,13.84
2023-10-14T09:13:22.197Z,13.98
2023-10-14T09:15:50.697Z,14.13
2023-10-14T09:18:33.148Z,14.25
2023-10-14T09:21:06.297Z,14.35
2023-10-14T09:23:35.855Z,14.44
2023-10-14T09:26:04.060Z,14.63
2023-10-14T09:28:35.611Z,14.73
2023-10-14T09:31:10.256Z,14.89
2023-10-14T09:33:45.104Z,14.87
2023-10-14T09:36:19.760Z,14.89
2023-10-14T09:38:49.724Z,14.79
2023-10-14T09:41:16.632Z,14.71
2023-10-14T09:43:52.183Z,14.84
2023-10-14T09:46:21.335Z,14.92
2023-10-14T09:48:48.156Z,14.94
2023-10-14T09:51:17.447Z,14.89
2023-10-14T09:53:47.221Z,15.02
2023-10-14T09:56:14.964Z,15.13
2023-10-14T09:58:44.940Z,15.16
2023-10-14T10:01:13.828Z,15.40
2023-10-14T10:03:46.017Z,15.31
2023-10-14T10:06:37.676Z,15.22
2023-10-14T10:09:25.707Z,15.21
2023-10-14T10:11:56.615Z,15.22
2023-10-14T10:14:26.119Z,15.12
2023-10-14T10:16:53.843Z,15.18
2023-10-14T10:19:25.353Z,15.26
2023-10-14T10:22:15.312Z,15.39
2023-10-14T10:24:45.152Z,15.49
2023-10-14T10:27:11.895Z,15.64
2023-10-14T10:29:45.044Z,15.77
2023-10-14T10:32:20.118Z,15.95
2023-10-14T10:35:06.404Z,16.35
2023-10-14T10:37:51.830Z,16.38
2023-10-14T10:40:26.892Z,16.31
2023-10-14T10:43:07.466Z,15.53
2023-10-14T10:45:35.831Z,15.11
2023-10-14T10:48:05.216Z,15.03
2023-10-14T10:50:39.515Z,15.02
2023-10-14T10:53:09.107Z,15.36
2023-10-14T10:55:47.546Z,15.43
2023-10-14T10:58:15.608Z,15.59
2023-10-14T11:00:44.020Z,15.79
2023-10-14T11:03:15.298Z,15.90
2023-10-14T11:05:47.271Z,16.06
2023-10-14T11:08:17.451Z,16.19
2023-10-14T11:10:45.753Z,16.21
2023-10-14T11:13:13.988Z,16.03
2023-10-14T11:15:42.015Z,16.17
2023-10-14T11:18:20.183Z,15.89
2023-10-14T11:20:50.945Z,16.10
2023-10-14T11:23:18.860Z,15.96
2023-10-14T11:25:48.394Z,15.99
2023-10-14T11:28:16.182Z,15.90
2023-10-14T11:30:45.004Z,16.08
2023-10-14T11:33:13.341Z,16.37
2023-10-14T11:35:40.827Z,16.54
2023-10-14T11:38:09.116Z,16.11
2023-10-14T11:40:41.209Z,15.96
2023-10-14T11:43:12.367Z,16.02
2023-10-14T11:45:44.818Z,16.36
2023-10-14T11:48:28.297Z,16.56
2023-10-14T11:51:03.136Z,17.01
2023-10-14T11:53:32.535Z,17.18
2023-10-14T11:56:04.682Z,17.37
2023-10-14T11:58:33.399Z,17.32
2023-10-14T12:01:00.826Z,17.14
2023-10-14T12:03:27.800Z,17.39
2023-10-14T12:05:58.907Z,16.85
2023-10-14T12:08:33.666Z,16.64
2023-10-14T12:11:00.760Z,16.46
2023-10-14T12:13:41.775Z,16.56
2023-10-14T12:16:13.873Z,16.45
2023-10-14T12:18:40.334Z,16.18
2023-10-14T12:21:06.790Z,16.10
2023-10-14T12:23:33.263Z,15.92
2023-10-14T12:26:01.689Z,15.67
2023-10-14T12:28:34.204Z,15.42
2023-10-14T12:31:10.377Z,15.19
2023-10-14T12:33:40.336Z,15.12
2023-10-14T12:36:10.377Z,15.15
2023-10-14T12:38:37.367Z,15.18
2023-10-14T12:41:07.257Z,15.10
2023-10-14T12:43:42.889Z,14.97
2023-10-14T12:46:21.262Z,15.03
2023-10-14T12:48:49.608Z,15.20
2023-10-14T12:51:26.834Z,15.13
2023-10-14T12:53:58.815Z,15.24
2023-10-14T12:56:27.612Z,15.29
2023-10-14T12:58:57.998Z,15.28
2023-10-14T13:01:24.955Z,15.33
2023-10-14T13:03:54.138Z,15.65
2023-10-14T13:06:25.147Z,15.79
2023-10-14T13:09:02.077Z,15.67
2023-10-14T13:11:30.132Z,15.35
2023-10-14T13:13:57.202Z,15.04
2023-10-14T13:16:26.407Z,14.83
2023-10-14T13:18:57.626Z,14.69
2023-10-14T13:21:30.129Z,14.59
2023-10-14T13:23:57.714Z,14.60
2023-10-14T13:26:24.926Z,14.64
2023-10-14T13:28:51.769Z,14.66
2023-10-14T13:31:18.932Z,15.10
2023-10-14T13:33:48.552Z,15.33
2023-10-14T13:36:18.632Z,15.30
2023-10-14T13:38:48.116Z,15.36
2023-10-14T13:41:16.178Z,15.51
2023-10-14T13:43:46.939Z,15.62
2023-10-14T13:46:13.877Z,15.99
2023-10-14T13:48:40.442Z,16.25
2023-10-14T13:51:06.990Z,16.10
2023-10-14T13:53:36.021Z,15.64
2023-10-14T13:56:05.789Z,15.40
2023-10-14T13:58:32.807Z,15.28
2023-10-14T14:01:02.056Z,15.30
2023-10-14T14:03:32.618Z,15.27
2023-10-14T14:05:59.900Z,15.26
2023-10-14T14:08:29.451Z,15.30
2023-10-14T14:11:04.831Z,15.29
2023-10-14T14:13:32.441Z,15.35
2023-10-14T14:16:02.026Z,15.35
2023-10-14T14:18:28.653Z,15.39
2023-10-14T14:20:55.202Z,15.40
2023-10-14T14:23:23.024Z,15.57
2023-10-14T14:25:49.994Z,15.66
2023-10-14T14:28:16.984Z,15.56
2023-10-14T14:30:43.438Z,15.48
2023-10-14T14:33:11.024Z,15.49
2023-10-14T14:35:38.852Z,15.34
2023-10-14T14:38:06.546Z,15.36
2023-10-14T14:40:33.394Z,15.17
2023-10-14T14:43:01.086Z,15.11
2023-10-14T14:45:29.214Z,15.04
2023-10-14T14:47:58.751Z,14.99
2023-10-14T14:50:27.444Z,14.95
2023-10-14T14:52:56.733Z,14.98
2023-10-14T14:55:23.313Z,14.88
2023-10-14T14:57:53.189Z,14.93
2023-10-14T15:00:27.288Z,14.88
2023-10-14T15:03:01.101Z,14.77
2023-10-14T15:05:32.517Z,14.76
2023-10-14T15:07:59.365Z,14.67
2023-10-14T15:10:26.048Z,14.51
2023-10-14T15:12:53.305Z,14.34
2023-10-14T15:15:19.873Z,14.24
2023-10-14T15:17:56.553Z,14.18
2023-10-14T15:20:23.589Z,14.31
2023-10-14T15:22:52.320Z,14.30
2023-10-14T15:25:20.640Z,14.46
2023-10-14T15:27:48.006Z,14.54
2023-10-14T15:30:16.655Z,14.68
2023-10-14T15:32:45.146Z,14.81
2023-10-14T15:35:14.433Z,14.90
2023-10-14T15:37:49.228Z,14.89
2023-10-14T15:40:18.870Z,14.85
2023-10-14T15:42:51.318Z,14.77
2023-10-14T15:45:28.826Z,14.78
2023-10-14T15:48:00.867Z,14.82
2023-10-14T15:50:29.135Z,14.86
2023-10-14T15:52:57.505Z,14.91
2023-10-14T15:55:27.933Z,14.81
2023-10-14T15:57:57.779Z,14.59
2023-10-14T16:00:25.124Z,14.31
2023-10-14T16:02:53.212Z,14.06
2023-10-14T16:05:22.501Z,13.86
2023-10-14T16:07:56.402Z,13.67
2023-10-14T16:10:24.095Z,13.42
2023-10-14T16:12:52.232Z,13.45
2023-10-14T16:15:19.104Z,13.39
2023-10-14T16:17:53.656Z,13.29
2023-10-14T16:20:27.591Z,13.10
2023-10-14T16:22:56.187Z,13.04
2023-10-14T16:25:23.753Z,12.93
2023-10-14T16:27:51.461Z,12.85
2023-10-14T16:30:19.815Z,12.77
2023-10-14T16:32:51.189Z,12.64
2023-10-14T16:35:28.008Z,12.61
2023-10-14T16:37:57.951Z,12.44
2023-10-14T16:40:27.792Z,12.44
2023-10-14T16:42:57.330Z,12.45
2023-10-14T16:45:23.750Z,12.33
2023-10-14T16:47:52.247Z,12.23
2023-10-14T16:50:25.436Z,12.12
2023-10-14T16:52:53.308Z,12.22
2023-10-14T16:55:21.069Z,12.33
2023-10-14T16:57:49.316Z,12.32
2023-10-14T17:00:21.777Z,12.37
2023-10-14T17:02:53.004Z,12.50
2023-10-14T17:05:22.488Z,12.46
2023-10-14T17:07:50.391Z,12.49
2023-10-14T17:10:19.371Z,12.46
2023-10-14T17:12:48.140Z,12.55
2023-10-14T17:15:25.464Z,12.58
2023-10-14T17:17:53.675Z,12.58
2023-10-14T17:20:21.866Z,12.62
2023-10-14T17:22:55.631Z,12.68
2023-10-14T17:25:30.428Z,12.74
2023-10-14T17:27:58.656Z,12.89
2023-10-14T17:30:30.997Z,12.94
2023-10-14T17:33:00.702Z,12.97
2023-10-14T17:35:27.385Z,12.98
2023-10-14T17:37:56.655Z,13.01
2023-10-14T17:40:28.576Z,13.00
2023-10-14T17:42:59.356Z,13.03
2023-10-14T17:45:27.810Z,12.97
2023-10-14T17:47:55.778Z,12.91
2023-10-14T17:50:24.810Z,12.85
2023-10-14T17:52:58.334Z,12.82
2023-10-14T17:55:26.123Z,12.78
2023-10-14T17:57:56.417Z,12.75
2023-10-14T18:00:32.659Z,12.70
2023-10-14T18:03:08.845Z,12.56
2023-10-14T18:05:42.189Z,12.40
2023-10-14T18:08:11.495Z,12.21
2023-10-14T18:10:37.996Z,12.01
2023-10-14T18:13:05.198Z,11.80
2023-10-14T18:15:32.036Z,11.64
2023-10-14T18:17:58.555Z,11.55
2023-10-14T18:20:28.288Z,11.52
2023-10-14T18:22:56.641Z,11.48
2023-10-14T18:25:31.238Z,11.53
2023-10-14T18:27:58.862Z,11.53
2023-10-14T18:30:26.827Z,11.47
2023-10-14T18:32:55.927Z,11.43
2023-10-14T18:35:28.605Z,11.45
2023-10-14T18:37:56.798Z,11.43
2023-10-14T18:40:28.000Z,11.40
2023-10-14T18:42:59.676Z,11.44
2023-10-14T18:45:29.282Z,11.47
2023-10-14T18:47:58.812Z,11.46
2023-10-14T18:50:30.278Z,11.42
2023-10-14T18:53:03.334Z,11.31
2023-10-14T18:55:30.766Z,11.28
2023-10-14T18:58:02.545Z,11.30
2023-10-14T19:00:30.808Z,11.13
2023-10-14T19:02:58.242Z,10.97
2023-10-14T19:05:32.152Z,10.93
2023-10-14T19:08:00.309Z,10.81
2023-10-14T19:10:37.827Z,10.61
2023-10-14T19:13:06.817Z,10.47
2023-10-14T19:15:36.405Z,10.39
2023-10-14T19:18:04.927Z,10.18
2023-10-14T19:20:34.730Z,10.07
2023-10-14T19:23:07.239Z,9.88
2023-10-14T19:25:34.501Z,9.75
2023-10-14T19:28:01.283Z,9.72
2023-10-14T19:30:30.796Z,9.55
2023-10-14T19:32:58.409Z,9.54
2023-10-14T19:35:24.817Z,9.54
2023-10-14T19:37:53.300Z,9.56
2023-10-14T19:40:21.014Z,9.56
2023-10-14T19:42:48.301Z,9.44
2023-10-14T19:45:18.311Z,9.42
2023-10-14T19:47:47.773Z,9.34
2023-10-14T19:50:16.798Z,9.25
2023-10-14T19:52:45.575Z,9.18
2023-10-14T19:55:33.711Z,9.16
2023-10-14T19:58:03.067Z,9.38
2023-10-14T20:00:36.341Z,9.35
2023-10-14T20:03:06.699Z,9.35
2023-10-14T20:05:39.911Z,9.26
2023-10-14T20:08:12.616Z,9.13
2023-10-14T20:10:42.459Z,9.12
2023-10-14T20:13:12.939Z,9.09
2023-10-14T20:15:41.885Z,9.00
2023-10-14T20:18:13.716Z,8.93
2023-10-14T20:20:41.633Z,8.89
2023-10-14T20:23:14.743Z,8.76
2023-10-14T20:25:43.539Z,8.69
2023-10-14T20:28:15.084Z,8.74
2023-10-14T20:30:43.531Z,8.76
2023-10-14T20:33:10.197Z,8.82
2023-10-14T20:35:40.125Z,9.04
2023-10-14T20:38:11.313Z,9.08
2023-10-14T20:40:41.461Z,8.91
2023-10-14T20:43:08.834Z,8.87
2023-10-14T20:45:36.379Z,9.01
2023-10-14T20:48:05.021Z,8.93
2023-10-14T20:50:33.007Z,8.74
2023-10-14T20:53:00.115Z,8.73
2023-10-14T20:55:28.501Z,8.68
2023-10-14T20:58:00.707Z,8.57
2023-10-14T21:00:35.430Z,8.64
2023-10-14T21:03:09.883Z,8.53
2023-10-14T21:05:39.276Z,8.67
2023-10-14T21:08:17.424Z,8.65
2023-10-14T21:10:45.426Z,8.45
2023-10-14T21:13:13.272Z,8.32
2023-10-14T21:15:40.509Z,8.25
2023-10-14T21:18:08.211Z,8.24
2023-10-14T21:20:42.479Z,8.27
2023-10-14T21:23:10.533Z,8.17
2023-10-14T21:25:38.244Z,8.19
2023-10-14T21:28:07.630Z,8.35
2023-10-14T21:30:37.185Z,8.37
2023-10-14T21:33:05.782Z,8.34
2023-10-14T21:35:33.537Z,8.30
2023-10-14T21:38:04.339Z,8.27
2023-10-14T21:40:32.192Z,8.24
2023-10-14T21:42:59.980Z,8.16
2023-10-14T21:45:35.842Z,8.05
2023-10-14T21:48:06.676Z,8.19
2023-10-14T21:50:33.243Z,8.03
2023-10-14T21:53:02.876Z,8.11
2023-10-14T21:55:29.460Z,8.20
2023-10-14T21:57:59.750Z,8.02
2023-10-14T22:00:51.743Z,7.92
2023-10-14T22:03:20.718Z,7.77
2023-10-14T22:05:47.877Z,7.81
2023-10-14T22:08:18.724Z,7.62
2023-10-14T22:10:46.131Z,7.54
2023-10-14T22:13:12.541Z,7.48
2023-10-14T22:15:41.160Z,7.80
2023-10-14T22:18:08.519Z,7.65
2023-10-14T22:20:35.273Z,7.80
2023-10-14T22:23:04.930Z,7.90
2023-10-14T22:25:35.685Z,7.88
2023-10-14T22:28:07.702Z,7.88
2023-10-14T22:30:39.706Z,7.80
2023-10-14T22:33:07.628Z,7.85
2023-10-14T22:35:36.021Z,7.72
2023-10-14T22:38:10.519Z,7.47
2023-10-14T22:40:37.368Z,7.36
2023-10-14T22:43:04.368Z,7.33
2023-10-14T22:45:34.371Z,7.29
2023-10-14T22:48:01.607Z,7.13
2023-10-14T22:50:28.975Z,7.10
2023-10-14T22:52:55.753Z,7.29
2023-10-14T22:55:23.053Z,7.25
2023-10-14T22:57:50.689Z,7.05
2023-10-14T23:00:21.264Z,6.94
2023-10-14T23:02:55.256Z,6.80
2023-10-14T23:05:22.333Z,6.65
2023-10-14T23:07:49.969Z,6.54
2023-10-14T23:10:20.589Z,6.41
2023-10-14T23:13:08.783Z,6.34
2023-10-14T23:15:35.325Z,6.25
2023-10-14T23:18:04.806Z,6.20
2023-10-14T23:20:32.188Z,6.16
2023-10-14T23:22:59.233Z,6.05
2023-10-14T23:25:27.547Z,6.10
2023-10-14T23:27:55.158Z,6.37
2023-10-14T23:30:23.269Z,6.62
2023-10-14T23:32:54.842Z,6.48
2023-10-14T23:35:24.653Z,6.32
2023-10-14T23:37:59.142Z,6.23
2023-10-14T23:40:27.060Z,6.11
2023-10-14T23:43:03.657Z,6.06
2023-10-14T23:45:36.098Z,6.07
2023-10-14T23:48:03.581Z,6.15
2023-10-14T23:50:31.429Z,6.02
2023-10-14T23:52:58.110Z,6.03
2023-10-14T23:55:26.417Z,5.95
2023-10-14T23:57:57.266Z,6.07
